createdAt,value
2019-05-02T00:00:13.097Z,73.43
2019-05-02T00:02:44.983Z,72.37
2019-05-02T00:05:32.039Z,71.87
2019-05-02T00:08:04.885Z,68.77
2019-05-02T00:10:36.849Z,67.53
2019-05-02T00:13:07.866Z,73.87
2019-05-02T00:15:39.231Z,71.03
2019-05-02T00:18:08.762Z,65.73
2019-05-02T00:20:39.059Z,70.30
2019-05-02T00:23:10.373Z,66.33
2019-05-02T00:25:41.962Z,67.43
2019-05-02T00:30:54.003Z,67.50
2019-05-02T00:33:29.243Z,67.73
2019-05-02T00:35:58.185Z,67.10
2019-05-02T00:38:33.407Z,63.43
2019-05-02T00:41:02.173Z,60.67
2019-05-02T00:43:39.067Z,64.80
2019-05-02T00:46:09.988Z,65.03
2019-05-02T00:48:59.946Z,63.30
2019-05-02T00:51:36.135Z,61.87
2019-05-02T00:54:07.069Z,60.33
2019-05-02T00:59:21.220Z,58.73
2019-05-02T01:02:12.566Z,59.07
2019-05-02T01:05:04.689Z,59.53
2019-05-02T01:07:35.250Z,58.97
2019-05-02T01:10:07.279Z,59.33
2019-05-02T01:12:44.485Z,59.20
2019-05-02T01:15:24.267Z,61.13
2019-05-02T01:18:05.593Z,59.33
2019-05-02T01:20:40.043Z,58.67
2019-05-02T01:23:10.248Z,57.87
2019-05-02T01:25:47.248Z,56.73
2019-05-02T01:28:28.325Z,59.17
2019-05-02T01:31:18.361Z,58.30
2019-05-02T01:39:27.941Z,56.70
2019-05-02T01:41:59.966Z,58.13
2019-05-02T01:44:31.049Z,57.67
2019-05-02T01:47:20.768Z,57.07
2019-05-02T01:50:12.345Z,60.40
2019-05-02T01:52:24.975Z,59.77
2019-05-02T01:54:54.250Z,56.07
2019-05-02T01:57:23.417Z,56.27
2019-05-02T01:59:54.660Z,57.27
2019-05-02T02:02:28.047Z,56.43
2019-05-02T02:05:00.228Z,55.80
2019-05-02T02:07:30.963Z,53.03
2019-05-02T02:10:09.408Z,54.17
2019-05-02T02:12:41.259Z,57.63
2019-05-02T02:15:29.064Z,57.20
2019-05-02T02:17:59.501Z,52.90
2019-05-02T02:20:34.187Z,51.23
2019-05-02T02:23:53.051Z,54.87
2019-05-02T02:26:26.141Z,48.00
2019-05-02T02:29:07.902Z,47.00
2019-05-02T02:31:46.280Z,49.00
2019-05-02T02:34:21.563Z,52.00
2019-05-02T02:39:32.512Z,48.80
2019-05-02T02:42:17.979Z,45.00
2019-05-02T02:47:35.477Z,43.40
2019-05-02T02:50:05.658Z,45.53
2019-05-02T02:52:37.778Z,43.97
2019-05-02T02:55:06.101Z,42.43
2019-05-02T02:57:40.075Z,37.53
2019-05-02T03:00:11.493Z,37.73
2019-05-02T03:03:00.398Z,39.87
2019-05-02T03:05:38.055Z,37.80
2019-05-02T03:08:07.414Z,38.73
2019-05-02T03:10:39.856Z,36.90
2019-05-02T03:13:25.842Z,33.47
2019-05-02T03:16:00.356Z,33.80
2019-05-02T03:18:39.820Z,34.47
2019-05-02T03:21:05.117Z,35.10
2019-05-02T03:23:35.451Z,31.07
2019-05-02T03:26:07.833Z,33.90
2019-05-02T03:28:37.185Z,31.63
2019-05-02T03:31:21.708Z,32.13
2019-05-02T03:33:54.872Z,33.17
2019-05-02T03:36:26.179Z,32.50
2019-05-02T03:38:50.297Z,32.53
2019-05-02T03:41:21.126Z,30.20
2019-05-02T03:44:09.917Z,28.87
2019-05-02T03:46:28.005Z,29.77
2019-05-02T03:49:05.408Z,31.70
2019-05-02T03:51:28.116Z,29.50
2019-05-02T03:54:10.430Z,30.87
2019-05-02T03:56:44.857Z,29.57
2019-05-02T03:59:12.581Z,29.50
2019-05-02T04:01:45.303Z,28.57
2019-05-02T04:04:20.743Z,27.87
2019-05-02T04:06:46.069Z,27.37
2019-05-02T04:09:39.236Z,26.33
2019-05-02T04:12:18.683Z,26.47
2019-05-02T04:14:46.888Z,24.60
2019-05-02T04:17:16.041Z,26.07
2019-05-02T04:19:45.898Z,24.57
2019-05-02T04:22:19.397Z,24.57
2019-05-02T04:24:54.370Z,23.57
2019-05-02T04:30:31.297Z,24.17
2019-05-02T04:33:02.665Z,23.60
2019-05-02T04:35:34.941Z,23.53
2019-05-02T04:38:19.442Z,22.17
2019-05-02T04:40:41.806Z,22.23
2019-05-02T04:43:11.346Z,22.67
2019-05-02T04:45:53.059Z,22.77
2019-05-02T04:48:11.786Z,21.57
2019-05-02T04:50:40.836Z,20.73
2019-05-02T04:53:10.112Z,20.33
2019-05-02T04:56:04.449Z,20.53
2019-05-02T04:58:34.796Z,19.57
2019-05-02T05:01:02.056Z,20.20
2019-05-02T05:03:37.595Z,20.43
2019-05-02T05:06:12.074Z,19.83
2019-05-02T05:08:52.085Z,19.40
2019-05-02T05:11:45.082Z,19.13
2019-05-02T05:14:22.987Z,19.03
2019-05-02T05:16:55.730Z,19.10
2019-05-02T05:19:37.696Z,18.00
2019-05-02T05:22:14.833Z,18.30
2019-05-02T05:24:51.131Z,18.70
2019-05-02T05:27:22.998Z,17.93
2019-05-02T05:29:59.490Z,18.43
2019-05-02T05:32:29.055Z,18.23
2019-05-02T05:35:03.374Z,18.23
2019-05-02T05:37:38.208Z,18.13
2019-05-02T05:40:09.830Z,17.33
2019-05-02T05:42:42.392Z,17.47
2019-05-02T05:45:14.155Z,17.43
2019-05-02T05:47:47.959Z,16.73
2019-05-02T05:50:32.164Z,17.20
2019-05-02T05:52:59.515Z,16.73
2019-05-02T05:55:33.626Z,16.43
2019-05-02T05:58:15.236Z,16.40
2019-05-02T06:00:41.051Z,16.33
2019-05-02T06:03:15.138Z,16.77
2019-05-02T06:05:44.970Z,16.63
2019-05-02T06:08:18.463Z,15.63
2019-05-02T06:10:46.121Z,15.00
2019-05-02T06:13:20.095Z,16.27
